Time;durP1;ratioP1;P1;durP2;ratioP2;P2;SDS_P1;SDS_P2;PMS_P1;PMS_P2;Temp;Humidity;BMP_temperature;BMP_pressure;BME280_temperature;BME280_humidity;BME280_pressure;Samples;Min_cycle;Max_cycle;Signal;HPM_P1;HPM_P2
2021/12/15 00:02:18;;;;;;;65.13;32.80;;;;;;;7.14;100.00;102769.16;5087727;28;20039;-82
2021/12/15 00:04:44;;;;;;;69.13;33.72;;;;;;;7.14;100.00;102770.94;5074059;28;20020;-81
2021/12/15 00:07:10;;;;;;;71.70;34.70;;;;;;;7.14;100.00;102778.88;5082706;28;20388;-81
2021/12/15 00:09:35;;;;;;;73.10;34.83;;;;;;;7.14;100.00;102776.25;5086952;28;20103;-81
2021/12/15 00:12:03;;;;;;;72.32;34.58;;;;;;;7.11;100.00;102768.34;5072754;28;20120;-81
2021/12/15 00:14:30;;;;;;;77.70;35.15;;;;;;;7.09;100.00;102765.69;5083300;28;20035;-81
2021/12/15 00:16:56;;;;;;;71.32;33.75;;;;;;;7.12;100.00;102768.31;5087885;28;20085;-81
2021/12/15 00:19:21;;;;;;;69.13;34.63;;;;;;;7.12;100.00;102764.78;5080176;28;20052;-81
2021/12/15 00:21:46;;;;;;;73.53;34.13;;;;;;;7.12;100.00;102762.13;5068623;28;20028;-81
2021/12/15 00:24:12;;;;;;;67.97;33.13;;;;;;;7.10;100.00;102750.66;5067391;28;20025;-81
2021/12/15 00:26:38;;;;;;;77.43;34.00;;;;;;;7.11;100.00;102753.31;5068917;28;20648;-81
2021/12/15 00:29:06;;;;;;;68.85;33.45;;;;;;;7.12;100.00;102754.19;5066926;28;20036;-81
2021/12/15 00:31:32;;;;;;;71.38;34.35;;;;;;;7.11;100.00;102752.44;5068280;28;20032;-81
2021/12/15 00:33:59;;;;;;;72.55;34.08;;;;;;;7.11;100.00;102760.38;5068923;28;20020;-81
2021/12/15 00:36:24;;;;;;;77.32;34.13;;;;;;;7.10;100.00;102753.31;5070221;28;20037;-81
2021/12/15 00:38:49;;;;;;;72.22;34.10;;;;;;;7.10;100.00;102750.66;5068055;28;20046;-81
2021/12/15 00:41:15;;;;;;;72.95;33.17;;;;;;;7.10;100.00;102754.19;5074535;28;20078;-81
2021/12/15 00:43:40;;;;;;;74.68;34.85;;;;;;;7.11;100.00;102755.97;5061057;28;20093;-80
2021/12/15 00:46:06;;;;;;;74.88;32.97;;;;;;;7.11;100.00;102760.38;5069672;28;20040;-81
2021/12/15 00:48:32;;;;;;;74.57;34.15;;;;;;;7.09;100.00;102749.78;5071507;28;20027;-81
2021/12/15 00:50:57;;;;;;;77.43;34.53;;;;;;;7.12;100.00;102754.19;5067520;28;20651;-81
2021/12/15 00:53:22;;;;;;;78.40;35.53;;;;;;;7.11;100.00;102750.69;5067233;28;20056;-81
2021/12/15 00:55:48;;;;;;;74.47;33.90;;;;;;;7.10;100.00;102746.25;5057214;28;20094;-82
2021/12/15 00:58:14;;;;;;;74.13;32.08;;;;;;;7.12;100.00;102746.25;5053907;28;20032;-81
2021/12/15 01:00:47;;;;;;;70.10;33.72;;;;;;;7.12;100.00;102748.91;5067001;28;20060;-81
2021/12/15 01:03:13;;;;;;;71.60;33.40;;;;;;;7.13;100.00;102753.31;5067421;28;20039;-81
2021/12/15 01:05:42;;;;;;;72.70;31.73;;;;;;;7.14;100.00;102752.41;5067341;28;20067;-81
2021/12/15 01:08:11;;;;;;;69.18;32.70;;;;;;;7.13;100.00;102754.19;5067242;28;20069;-81
2021/12/15 01:11:04;;;;;;;68.65;31.23;;;;;;;7.14;100.00;102755.06;5066409;28;20044;-80
2021/12/15 01:21:48;;;;;;;65.97;30.33;;;;;;;7.16;100.00;102759.47;5088402;28;20046;-81
2021/12/15 01:24:14;;;;;;;71.18;31.27;;;;;;;7.17;100.00;102774.47;5087837;28;20730;-81
2021/12/15 01:26:39;;;;;;;68.32;32.08;;;;;;;7.17;100.00;102763.84;5088124;28;20024;-80
2021/12/15 01:29:05;;;;;;;68.75;31.25;;;;;;;7.18;100.00;102773.56;5085329;28;20530;-80
2021/12/15 01:31:30;;;;;;;65.18;30.02;;;;;;;7.15;100.00;102759.47;5079205;28;20055;-81
2021/12/15 01:33:56;;;;;;;68.22;30.77;;;;;;;7.14;100.00;102768.28;5087495;28;20365;-81
2021/12/15 01:36:21;;;;;;;71.32;31.77;;;;;;;7.19;100.00;102766.50;5086688;28;20122;-81
2021/12/15 01:38:47;;;;;;;69.63;31.50;;;;;;;7.19;100.00;102775.34;5086162;28;20053;-81
2021/12/15 01:41:20;;;;;;;64.72;31.13;;;;;;;7.19;100.00;102766.50;5087476;28;20017;-81
2021/12/15 01:46:55;;;;;;;73.15;33.22;;;;;;;7.18;100.00;102772.69;5087731;28;20060;-81
2021/12/15 01:49:41;;;;;;;73.68;32.25;;;;;;;7.19;100.00;102775.34;5085111;28;20272;-81
2021/12/15 01:52:15;;;;;;;72.88;32.67;;;;;;;7.19;100.00;102783.28;5076556;28;20028;-80
2021/12/15 01:54:42;;;;;;;;;;;;;;;7.22;100.00;102772.66;5068438;28;20107;-81
2021/12/15 01:57:10;;;;;;;74.13;30.90;;;;;;;7.19;100.00;102766.50;5085379;28;19920;-80
2021/12/15 01:59:36;;;;;;;76.85;32.40;;;;;;;7.16;100.00;102778.00;5082133;28;20027;-81
2021/12/15 02:02:02;;;;;;;75.15;31.25;;;;;;;7.15;100.00;102775.38;5074990;28;20061;-80
2021/12/15 02:04:28;;;;;;;75.72;33.05;;;;;;;7.15;100.00;102773.59;5087834;28;20031;-81
2021/12/15 02:06:54;;;;;;;72.78;32.08;;;;;;;7.14;100.00;102773.59;5084656;28;20106;-81
2021/12/15 02:09:42;;;;;;;73.28;32.17;;;;;;;7.15;100.00;102784.19;5089270;28;20066;-81
2021/12/15 02:12:09;;;;;;;79.28;32.70;;;;;;;7.14;100.00;102779.75;5090595;28;20040;-82
2021/12/15 02:14:35;;;;;;;82.90;32.90;;;;;;;7.16;100.00;102780.66;5081411;28;20020;-81
2021/12/15 02:17:01;;;;;;;80.07;32.17;;;;;;;7.15;100.00;102781.53;5083313;28;20024;-81
2021/12/15 02:19:26;;;;;;;80.72;33.00;;;;;;;7.16;100.00;102785.06;5089076;28;20048;-81
2021/12/15 02:21:53;;;;;;;73.93;32.13;;;;;;;7.17;100.00;102790.34;5090704;28;20477;-81
2021/12/15 02:24:18;;;;;;;84.75;34.30;;;;;;;7.16;100.00;102790.38;5090894;28;20062;-81
2021/12/15 02:26:49;;;;;;;76.47;32.45;;;;;;;7.20;100.00;102789.47;5090621;28;20028;-81
2021/12/15 02:29:18;;;;;;;76.50;32.25;;;;;;;7.16;100.00;102783.28;5086322;28;20393;-81
2021/12/15 02:34:34;;;;;;;79.85;32.08;;;;;;;7.21;100.00;102788.56;5089348;28;20043;-81
2021/12/15 02:39:32;;;;;;;75.90;32.35;;;;;;;7.22;100.00;102785.91;5087333;28;20028;-81
2021/12/15 02:41:58;;;;;;;74.15;31.00;;;;;;;7.23;100.00;102781.47;5090439;28;20051;-81
2021/12/15 02:44:24;;;;;;;77.88;32.40;;;;;;;7.21;100.00;102780.63;5089337;28;20020;-81
2021/12/15 02:46:51;;;;;;;75.60;30.98;;;;;;;7.25;100.00;102787.66;5087847;28;20057;-82
2021/12/15 02:49:20;;;;;;;76.15;31.50;;;;;;;7.26;100.00;102791.19;5084252;28;20354;-81
2021/12/15 02:51:49;;;;;;;81.72;33.33;;;;;;;7.26;100.00;102784.09;5089173;28;20472;-82
2021/12/15 02:54:16;;;;;;;74.10;31.15;;;;;;;7.23;100.00;102777.09;5076230;28;20881;-82
2021/12/15 02:56:43;;;;;;;69.47;31.60;;;;;;;7.26;100.00;102786.75;5089040;28;20016;-82
2021/12/15 02:59:11;;;;;;;80.90;32.72;;;;;;;7.27;100.00;102784.97;5085912;28;20119;-81
2021/12/15 03:04:31;;;;;;;79.57;33.08;;;;;;;7.27;100.00;102791.16;5078701;28;20481;-82
2021/12/15 03:07:08;;;;;;;69.82;30.80;;;;;;;7.27;100.00;102782.34;5077289;28;20111;-82
2021/12/15 03:18:07;;;;;;;75.57;30.50;;;;;;;7.28;100.00;102782.34;5085548;28;20036;-82
2021/12/15 03:20:57;;;;;;;72.13;30.77;;;;;;;7.30;100.00;102779.69;5089402;28;20036;-81
2021/12/15 03:23:32;;;;;;;73.47;29.83;;;;;;;7.28;100.00;102777.06;5089378;28;20032;-82
2021/12/15 03:25:59;;;;;;;69.47;29.25;;;;;;;7.26;100.00;102772.63;5089641;28;20039;-82
2021/12/15 03:34:24;;;;;;;74.25;30.48;;;;;;;7.22;100.00;102764.72;5088341;28;20508;-82
2021/12/15 03:39:23;;;;;;;67.15;28.80;;;;;;;7.27;100.00;102779.69;5088756;28;20032;-81
2021/12/15 03:41:57;;;;;;;71.57;30.02;;;;;;;7.28;100.00;102778.81;5088943;28;20107;-81
2021/12/15 03:44:23;;;;;;;74.32;31.58;;;;;;;7.26;100.00;102776.16;5088176;28;20031;-81
2021/12/15 03:46:49;;;;;;;74.28;30.30;;;;;;;7.24;100.00;102777.97;5088831;28;20056;-81
2021/12/15 03:49:14;;;;;;;68.97;29.58;;;;;;;7.27;100.00;102782.34;5086823;28;20046;-81
2021/12/15 03:51:39;;;;;;;67.43;29.90;;;;;;;7.26;100.00;102784.09;5089077;28;20028;-81
2021/12/15 03:54:05;;;;;;;66.68;29.42;;;;;;;7.23;100.00;102773.53;5074415;28;20024;-81
2021/12/15 03:56:30;;;;;;;68.40;28.90;;;;;;;7.23;100.00;102776.19;5089157;28;20036;-82
2021/12/15 03:58:56;;;;;;;70.00;29.05;;;;;;;7.27;100.00;102777.03;5085702;28;20201;-81
2021/12/15 04:01:23;;;;;;;69.18;29.90;;;;;;;7.26;100.00;102780.59;5081205;28;20065;-81
2021/12/15 04:03:51;;;;;;;68.50;29.73;;;;;;;7.27;100.00;102792.94;5088629;28;20027;-82
2021/12/15 04:06:21;;;;;;;71.03;29.48;;;;;;;7.29;100.00;102793.81;5087362;28;20038;-81
2021/12/15 04:08:47;;;;;;;66.63;28.70;;;;;;;7.29;100.00;102794.69;5085851;28;20035;-81
2021/12/15 04:11:15;;;;;;;63.05;27.52;;;;;;;7.29;100.00;102800.00;5088376;28;20103;-81
2021/12/15 04:13:41;;;;;;;63.72;27.23;;;;;;;7.26;100.00;102789.41;5088763;28;20119;-82
2021/12/15 04:16:15;;;;;;;66.38;29.25;;;;;;;7.30;100.00;102796.44;5088627;28;20036;-81
2021/12/15 04:18:41;;;;;;;63.35;27.17;;;;;;;7.26;100.00;102781.47;5086885;28;20028;-82
2021/12/15 04:21:06;;;;;;;64.97;27.85;;;;;;;7.26;100.00;102781.47;5088214;28;20721;-81
2021/12/15 04:23:32;;;;;;;60.28;27.05;;;;;;;7.26;100.00;102781.47;5087886;28;20076;-82
2021/12/15 04:25:59;;;;;;;64.40;28.20;;;;;;;7.27;100.00;102783.22;5088392;28;20102;-81
2021/12/15 04:28:34;;;;;;;65.30;28.05;;;;;;;7.29;100.00;102781.44;5084642;28;20534;-81
2021/12/15 04:31:07;;;;;;;62.45;27.65;;;;;;;7.32;100.00;102799.09;5088039;28;20044;-82
2021/12/15 04:33:35;;;;;;;54.30;25.08;;;;;;;7.31;100.00;102797.31;5088254;28;20028;-81
2021/12/15 04:36:04;;;;;;;56.35;25.38;;;;;;;7.24;100.00;102796.50;5088103;28;20036;-82
2021/12/15 04:38:32;;;;;;;55.30;25.15;;;;;;;7.27;100.00;102795.59;5085861;28;20020;-81
2021/12/15 04:41:00;;;;;;;54.10;25.05;;;;;;;7.30;100.00;102804.41;5088230;28;20137;-81
2021/12/15 04:43:30;;;;;;;54.00;24.80;;;;;;;7.29;100.00;102799.13;5085809;28;20028;-81
2021/12/15 04:45:56;;;;;;;62.53;27.50;;;;;;;7.31;100.00;102802.63;5088314;28;20088;-82
2021/12/15 04:48:21;;;;;;;53.75;23.80;;;;;;;7.32;100.00;102800.00;5085818;28;20421;-81
2021/12/15 04:50:48;;;;;;;53.75;25.23;;;;;;;7.32;100.00;102807.94;5079478;28;20028;-81
2021/12/15 04:53:14;;;;;;;56.00;25.08;;;;;;;7.33;100.00;102806.16;5087513;28;20490;-81
2021/12/15 04:55:39;;;;;;;51.85;25.02;;;;;;;7.32;100.00;102810.59;5086507;28;20055;-81
2021/12/15 04:58:08;;;;;;;55.67;25.17;;;;;;;7.32;100.00;102818.53;5085799;28;20020;-82
2021/12/15 05:00:42;;;;;;;51.53;23.65;;;;;;;7.35;100.00;102815.84;5087930;28;20096;-82
2021/12/15 05:03:07;;;;;;;56.10;23.98;;;;;;;7.34;100.00;102818.50;5071793;28;20039;-82
2021/12/15 05:05:34;;;;;;;54.13;24.77;;;;;;;7.35;100.00;102820.25;5088127;28;20016;-82
2021/12/15 05:08:01;;;;;;;49.17;24.67;;;;;;;7.34;100.00;102827.31;5081473;28;20545;-81
2021/12/15 05:10:26;;;;;;;49.53;23.65;;;;;;;7.34;100.00;102829.97;5084880;28;20035;-81
2021/12/15 05:12:53;;;;;;;53.88;23.85;;;;;;;7.33;100.00;102817.63;5074334;28;20020;-81
2021/12/15 05:15:18;;;;;;;53.35;24.55;;;;;;;7.35;100.00;102834.38;5087138;28;20039;-82
2021/12/15 05:17:44;;;;;;;51.20;24.52;;;;;;;7.35;100.00;102823.78;5085412;28;20024;-82
2021/12/15 05:20:10;;;;;;;49.58;23.30;;;;;;;7.35;100.00;102828.22;5087679;28;20120;-82
2021/12/15 05:22:37;;;;;;;50.90;24.58;;;;;;;7.36;100.00;102830.88;5085681;28;20028;-81
2021/12/15 05:25:04;;;;;;;52.55;23.95;;;;;;;7.37;100.00;102829.09;5087209;28;20272;-81
2021/12/15 05:27:30;;;;;;;48.25;23.25;;;;;;;7.37;100.00;102837.03;5085756;28;20024;-81
2021/12/15 05:29:57;;;;;;;51.55;24.73;;;;;;;7.32;100.00;102825.59;5087629;28;20089;-81
2021/12/15 05:32:22;;;;;;;54.80;24.25;;;;;;;7.36;100.00;102833.50;5087919;28;20027;-81
2021/12/15 05:34:51;;;;;;;52.95;24.10;;;;;;;7.37;100.00;102837.03;5088276;28;20456;-81
2021/12/15 05:37:19;;;;;;;49.28;23.38;;;;;;;7.36;100.00;102843.25;5085421;28;20096;-81
2021/12/15 05:39:45;;;;;;;53.15;24.38;;;;;;;7.37;100.00;102835.28;5087459;28;20377;-81
2021/12/15 05:42:11;;;;;;;57.08;25.80;;;;;;;7.39;100.00;102845.84;5091510;28;20028;-82
2021/12/15 05:44:37;;;;;;;52.08;23.88;;;;;;;7.37;100.00;102837.91;5091157;28;20477;-81
2021/12/15 05:47:04;;;;;;;48.30;23.00;;;;;;;7.36;100.00;102844.13;5086360;28;20036;-81
2021/12/15 05:49:29;;;;;;;47.63;22.92;;;;;;;7.35;100.00;102838.81;5084737;28;20055;-81
2021/12/15 05:51:55;;;;;;;51.63;24.25;;;;;;;7.37;100.00;102850.28;5088872;28;20116;-81
2021/12/15 05:54:21;;;;;;;49.92;23.75;;;;;;;7.36;100.00;102851.19;5085487;28;20043;-81
2021/12/15 05:56:48;;;;;;;48.53;23.38;;;;;;;7.35;100.00;102850.28;5083850;28;20115;-81
2021/12/15 05:59:13;;;;;;;53.90;24.60;;;;;;;7.37;100.00;102850.28;5089461;28;20515;-81
2021/12/15 06:01:39;;;;;;;55.92;24.13;;;;;;;7.37;100.00;102847.63;5082276;28;20115;-81
2021/12/15 06:04:06;;;;;;;57.08;24.15;;;;;;;7.36;100.00;102849.41;5086337;28;20024;-81
2021/12/15 06:06:32;;;;;;;54.95;24.08;;;;;;;7.37;100.00;102853.81;5088912;28;20027;-81
2021/12/15 06:08:58;;;;;;;52.15;24.80;;;;;;;7.39;100.00;102853.78;5090027;28;20028;-81
2021/12/15 06:11:24;;;;;;;49.50;23.45;;;;;;;7.39;100.00;102846.72;5089358;28;20069;-81
2021/12/15 06:13:50;;;;;;;55.30;24.48;;;;;;;7.37;100.00;102853.81;5088679;28;20064;-82
2021/12/15 06:16:18;;;;;;;54.75;23.65;;;;;;;7.35;100.00;102849.41;5081233;28;20443;-82
2021/12/15 06:18:45;;;;;;;56.53;25.33;;;;;;;7.37;100.00;102860.88;5087282;28;20385;-81
2021/12/15 06:21:10;;;;;;;55.97;25.48;;;;;;;7.38;100.00;102860.88;5076718;28;20031;-81
2021/12/15 06:23:37;;;;;;;60.67;26.60;;;;;;;7.38;100.00;102866.16;5083796;28;20036;-81
2021/12/15 06:26:05;;;;;;;58.20;26.70;;;;;;;7.36;100.00;102849.41;5089528;28;20032;-81
2021/12/15 06:28:32;;;;;;;56.00;24.58;;;;;;;7.32;100.00;102844.13;5079426;28;20026;-81
2021/12/15 06:30:58;;;;;;;58.03;25.83;;;;;;;7.34;100.00;102859.13;5090199;28;20477;-81
2021/12/15 06:33:26;;;;;;;57.70;25.30;;;;;;;7.35;100.00;102858.22;5083555;28;20035;-81
2021/12/15 06:35:53;;;;;;;56.47;26.10;;;;;;;7.35;100.00;102863.53;5087123;28;20033;-81
2021/12/15 06:38:24;;;;;;;61.83;27.10;;;;;;;7.34;100.00;102860.88;5090229;28;20165;-82
2021/12/15 06:40:51;;;;;;;55.88;25.00;;;;;;;7.35;100.00;102858.22;5090297;28;20024;-81
2021/12/15 06:43:16;;;;;;;56.95;26.40;;;;;;;7.36;100.00;102870.59;5087015;28;20116;-82
2021/12/15 06:46:02;;;;;;;63.42;27.30;;;;;;;7.38;100.00;102857.34;5082293;28;20096;-81
2021/12/15 06:59:23;;;;;;;56.67;24.65;;;;;;;7.37;100.00;102869.72;5089552;28;19962;-83
2021/12/15 07:01:51;;;;;;;65.18;26.17;;;;;;;7.40;100.00;102875.00;5079978;28;20043;-82
2021/12/15 07:04:21;;;;;;;60.25;25.80;;;;;;;7.40;100.00;102875.00;5080433;28;20462;-82
2021/12/15 07:06:51;;;;;;;67.38;26.95;;;;;;;7.38;100.00;102868.81;5078830;28;20119;-81
2021/12/15 07:09:16;;;;;;;59.63;25.42;;;;;;;7.41;100.00;102878.53;5078391;28;20108;-82
2021/12/15 07:11:42;;;;;;;63.03;27.15;;;;;;;7.37;100.00;102872.34;5079675;28;20102;-81
2021/12/15 07:14:07;;;;;;;64.53;27.20;;;;;;;7.42;100.00;102888.22;5082243;28;20055;-82
2021/12/15 07:16:39;;;;;;;60.47;26.85;;;;;;;7.37;100.00;102885.59;5080911;28;20028;-82
2021/12/15 07:19:19;;;;;;;62.30;27.05;;;;;;;7.40;100.00;102893.53;5078529;28;20127;-80
2021/12/15 07:21:54;;;;;;;67.90;28.52;;;;;;;7.40;100.00;102892.66;5082212;28;20055;-82
2021/12/15 07:24:21;;;;;;;63.22;27.40;;;;;;;7.42;100.00;102890.88;5076590;28;20089;-81
2021/12/15 07:26:48;;;;;;;66.05;28.88;;;;;;;7.40;100.00;102888.25;5082062;28;20055;-82
2021/12/15 07:29:13;;;;;;;63.60;26.95;;;;;;;7.42;100.00;102897.06;5085376;28;20409;-81
2021/12/15 07:31:38;;;;;;;67.05;27.70;;;;;;;7.44;100.00;102905.88;5088047;28;20122;-81
2021/12/15 07:34:04;;;;;;;67.95;27.80;;;;;;;7.43;100.00;102900.56;5084524;28;20048;-82
2021/12/15 07:36:30;;;;;;;70.20;29.02;;;;;;;7.44;100.00;102911.19;5087565;28;20027;-82
2021/12/15 07:38:57;;;;;;;68.50;28.35;;;;;;;7.39;100.00;102898.84;5089116;28;20027;-82
2021/12/15 07:41:28;;;;;;;68.30;28.40;;;;;;;7.44;100.00;102904.97;5089076;28;20028;-81
2021/12/15 07:43:55;;;;;;;64.63;27.73;;;;;;;7.44;100.00;102905.88;5089026;28;20024;-81
2021/12/15 07:46:20;;;;;;;70.15;29.23;;;;;;;7.46;100.00;102897.91;5082192;28;20025;-82
2021/12/15 07:48:45;;;;;;;69.43;29.42;;;;;;;7.46;100.00;102903.22;5088233;28;20391;-81
2021/12/15 07:51:13;;;;;;;67.15;27.83;;;;;;;7.45;100.00;102902.34;5088410;28;20032;-82
2021/12/15 07:53:40;;;;;;;68.03;27.73;;;;;;;7.46;100.00;102914.69;5086765;28;20494;-82
2021/12/15 07:56:06;;;;;;;67.43;27.23;;;;;;;7.48;100.00;102915.59;5086838;28;20032;-82
2021/12/15 07:58:32;;;;;;;70.32;28.98;;;;;;;7.48;100.00;102915.59;5087888;28;20089;-81
2021/12/15 08:00:59;;;;;;;70.95;28.65;;;;;;;7.45;100.00;102912.94;5090028;28;20468;-82
2021/12/15 08:03:26;;;;;;;80.18;28.85;;;;;;;7.49;100.00;102909.38;5087731;28;20024;-82
2021/12/15 08:05:52;;;;;;;76.43;29.02;;;;;;;7.49;100.00;102909.38;5084986;28;20035;-81
2021/12/15 08:08:19;;;;;;;68.53;28.73;;;;;;;7.50;100.00;102910.25;5089047;28;20035;-81
2021/12/15 08:10:45;;;;;;;68.25;28.42;;;;;;;7.51;100.00;102912.03;5089888;28;20111;-81
2021/12/15 08:13:11;;;;;;;75.32;29.55;;;;;;;7.51;100.00;102916.44;5074498;28;20080;-81
2021/12/15 08:15:38;;;;;;;73.82;29.13;;;;;;;7.49;100.00;102912.03;5083732;28;20471;-81
2021/12/15 08:18:04;;;;;;;77.85;30.35;;;;;;;7.53;100.00;102919.97;5086049;28;20097;-81
2021/12/15 08:20:30;;;;;;;75.35;30.02;;;;;;;7.54;100.00;102927.91;5087172;28;20052;-81
2021/12/15 08:22:56;;;;;;;70.88;28.10;;;;;;;7.54;100.00;102929.69;5079149;28;20115;-81
2021/12/15 08:25:22;;;;;;;74.22;30.33;;;;;;;7.53;100.00;102925.28;5075898;28;20155;-81
2021/12/15 08:27:48;;;;;;;72.32;30.05;;;;;;;7.54;100.00;102925.25;5090353;28;20028;-80
2021/12/15 08:30:20;;;;;;;70.97;29.20;;;;;;;7.56;100.00;102927.91;5084005;28;20769;-80
2021/12/15 08:32:48;;;;;;;68.22;28.25;;;;;;;7.57;100.00;102921.72;5082673;28;20422;-80
2021/12/15 08:35:15;;;;;;;72.38;30.10;;;;;;;7.57;100.00;102929.69;5085430;28;20107;-82
2021/12/15 08:37:41;;;;;;;73.38;30.00;;;;;;;7.56;100.00;102926.13;5074896;28;20060;-82
2021/12/15 08:40:07;;;;;;;73.57;29.95;;;;;;;7.60;100.00;102932.28;5087428;28;20082;-82
2021/12/15 08:42:32;;;;;;;66.70;29.17;;;;;;;7.61;100.00;102931.44;5080995;28;20046;-82
2021/12/15 08:44:58;;;;;;;74.63;30.73;;;;;;;7.59;100.00;102931.41;5085314;28;20020;-82
2021/12/15 08:47:23;;;;;;;74.43;30.63;;;;;;;7.62;100.00;102931.41;5086849;28;20089;-82
2021/12/15 08:49:49;;;;;;;74.25;31.17;;;;;;;7.62;100.00;102931.41;5078218;28;20085;-83
2021/12/15 08:52:14;;;;;;;68.50;30.95;;;;;;;7.62;100.00;102926.09;5083501;28;20032;-82
2021/12/15 08:54:40;;;;;;;69.25;29.50;;;;;;;7.65;100.00;102926.09;5081314;28;20077;-82
2021/12/15 08:57:05;;;;;;;74.00;31.67;;;;;;;7.65;100.00;102926.09;5085806;28;20633;-82
2021/12/15 08:59:30;;;;;;;69.40;30.83;;;;;;;7.67;100.00;102936.69;5090841;28;20382;-83
2021/12/15 09:01:57;;;;;;;71.53;30.38;;;;;;;7.68;100.00;102930.47;5082530;28;20032;-82
2021/12/15 09:04:22;;;;;;;67.40;28.98;;;;;;;7.68;100.00;102926.06;5080982;28;20028;-82
2021/12/15 09:06:49;;;;;;;70.32;30.90;;;;;;;7.69;100.00;102933.16;5082944;28;20020;-83
2021/12/15 09:09:16;;;;;;;69.85;29.45;;;;;;;7.69;100.00;102935.78;5087168;28;20088;-83
2021/12/15 09:11:43;;;;;;;66.80;30.20;;;;;;;7.73;100.00;102944.59;5081321;28;20108;-84
2021/12/15 09:14:11;;;;;;;65.43;28.58;;;;;;;7.69;100.00;102938.44;5076908;28;20045;-83
2021/12/15 09:16:37;;;;;;;69.18;29.80;;;;;;;7.74;100.00;102941.94;5083889;28;20035;-83
2021/12/15 09:19:04;;;;;;;64.60;29.73;;;;;;;7.74;100.00;102946.38;5074660;28;20055;-83
2021/12/15 09:21:32;;;;;;;66.70;28.35;;;;;;;7.77;100.00;102956.94;5085175;28;20473;-83
2021/12/15 09:23:59;;;;;;;62.78;28.17;;;;;;;7.79;100.00;102949.88;5076291;28;20029;-83
2021/12/15 09:26:25;;;;;;;62.55;28.83;;;;;;;7.81;100.00;102956.03;5084692;28;20107;-84
2021/12/15 09:28:51;;;;;;;64.53;28.65;;;;;;;7.77;100.00;102956.06;5087825;28;20073;-85
2021/12/15 09:31:16;;;;;;;65.95;29.08;;;;;;;7.83;100.00;102961.34;5063467;28;20032;-84
2021/12/15 09:33:45;;;;;;;65.15;29.17;;;;;;;7.83;100.00;102954.25;5073179;28;20385;-84
2021/12/15 09:36:12;;;;;;;64.07;29.35;;;;;;;7.87;100.00;102958.66;5081362;28;20051;-84
2021/12/15 09:38:38;;;;;;;66.85;29.00;;;;;;;7.89;100.00;102969.25;5077657;28;20036;-85
2021/12/15 09:41:05;;;;;;;67.22;29.02;;;;;;;7.91;100.00;102970.13;5076371;28;20021;-85
2021/12/15 09:43:32;;;;;;;65.60;29.27;;;;;;;7.88;100.00;102957.75;5072230;28;20032;-84
2021/12/15 09:46:09;;;;;;;59.55;27.25;;;;;;;7.94;100.00;102967.44;5081411;28;20451;-83
2021/12/15 10:02:33;;;;;;;63.42;28.27;;;;;;;8.06;100.00;102967.38;5066491;28;20094;-83
2021/12/15 10:05:27;;;;;;;62.20;29.08;;;;;;;8.10;100.00;102961.16;5074266;28;20024;-83
2021/12/15 10:19:19;;;;;;;64.55;28.67;;;;;;;8.23;100.00;102972.56;5067523;28;20469;-84
2021/12/15 10:22:08;;;;;;;62.65;29.20;;;;;;;8.25;100.00;102981.41;5075279;28;20040;-83
2021/12/15 10:24:48;;;;;;;64.55;29.52;;;;;;;8.22;100.00;102962.84;5090535;28;20396;-83
2021/12/15 10:27:33;;;;;;;59.47;28.77;;;;;;;8.27;100.00;102969.00;5082565;28;20058;-82
2021/12/15 10:30:10;;;;;;;58.33;29.25;;;;;;;8.32;100.00;102976.91;5076818;28;20493;-82
2021/12/15 10:32:40;;;;;;;63.35;30.20;;;;;;;8.35;100.00;102979.56;5075673;28;20032;-83
2021/12/15 10:35:27;;;;;;;61.88;29.65;;;;;;;8.39;100.00;102963.63;5071226;28;20059;-83
2021/12/15 10:38:20;;;;;;;60.70;29.88;;;;;;;8.44;100.00;102969.81;5069068;28;20064;-82
2021/12/15 10:40:53;;;;;;;65.18;29.60;;;;;;;8.47;100.00;102961.78;5086995;28;20396;-83
2021/12/15 10:43:21;;;;;;;62.90;30.77;;;;;;;8.55;100.00;102974.13;5087532;28;20109;-83
2021/12/15 10:45:53;;;;;;;62.95;30.33;;;;;;;8.55;100.00;102974.13;5082162;28;20048;-84
2021/12/15 10:48:35;;;;;;;65.47;30.73;;;;;;;8.55;100.00;102972.34;5087208;28;20024;-84
2021/12/15 10:51:18;;;;;;;68.63;31.13;;;;;;;8.58;100.00;102967.03;5077051;28;20047;-84
2021/12/15 10:53:43;;;;;;;59.00;29.30;;;;;;;8.61;100.00;102969.66;5072666;28;20028;-83
2021/12/15 10:56:11;;;;;;;59.38;29.58;;;;;;;8.60;100.00;102967.00;5076312;28;20028;-83
2021/12/15 10:58:40;;;;;;;61.95;30.33;;;;;;;8.63;100.00;102969.63;5079199;28;20490;-84
2021/12/15 11:01:31;;;;;;;65.25;32.53;;;;;;;8.61;100.00;102968.75;5081742;28;20597;-84
2021/12/15 11:04:00;;;;;;;67.18;30.85;;;;;;;8.59;100.00;102975.84;5086845;28;20494;-83
2021/12/15 11:06:32;;;;;;;61.88;31.25;;;;;;;8.47;100.00;102959.13;5085043;28;20495;-84
2021/12/15 11:09:20;;;;;;;66.35;30.50;;;;;;;8.62;100.00;102975.84;5081864;28;20020;-84
2021/12/15 11:12:10;;;;;;;61.28;30.20;;;;;;;8.65;100.00;102973.13;5066704;28;20025;-83
2021/12/15 11:14:38;;;;;;;63.47;31.45;;;;;;;8.66;100.00;102973.16;5066330;28;20024;-83
2021/12/15 11:17:14;;;;;;;68.25;32.25;;;;;;;8.68;100.00;102975.78;5078589;28;20549;-83
2021/12/15 11:19:42;;;;;;;66.65;32.47;;;;;;;8.67;100.00;102972.25;5067844;28;20048;-83
2021/12/15 11:22:35;;;;;;;62.67;33.22;;;;;;;8.72;100.00;102969.53;5074012;28;20103;-83
2021/12/15 11:25:03;;;;;;;64.03;32.20;;;;;;;8.67;100.00;102950.13;5078261;28;20562;-83
2021/12/15 11:27:29;;;;;;;61.78;31.13;;;;;;;8.79;100.00;102954.44;5086625;28;20032;-84
2021/12/15 11:29:54;;;;;;;57.40;30.25;;;;;;;8.84;100.00;102950.84;5080949;28;20082;-83
2021/12/15 11:32:50;;;;;;;61.15;30.05;;;;;;;8.94;100.00;102957.81;5077519;28;20036;-83
2021/12/15 11:35:20;;;;;;;60.05;29.67;;;;;;;8.95;100.00;102959.59;5079510;28;20740;-83
2021/12/15 11:37:46;;;;;;;56.42;30.25;;;;;;;9.00;100.00;102959.53;5076430;28;20040;-83
2021/12/15 11:40:12;;;;;;;57.58;30.58;;;;;;;9.04;99.72;102960.38;5080075;28;20518;-83
2021/12/15 11:42:40;;;;;;;58.60;30.38;;;;;;;9.06;99.40;102953.25;5088772;28;20112;-83
2021/12/15 11:45:08;;;;;;;55.17;29.75;;;;;;;9.12;99.08;102955.88;5077530;28;20032;-83
2021/12/15 11:47:33;;;;;;;58.17;31.13;;;;;;;9.11;98.57;102952.34;5086703;28;20031;-83
2021/12/15 11:50:19;;;;;;;57.40;30.10;;;;;;;9.15;98.48;102945.19;5085215;28;20440;-84
2021/12/15 11:52:49;;;;;;;53.85;28.95;;;;;;;9.18;98.21;102938.06;5072836;28;20396;-83
2021/12/15 11:55:40;;;;;;;54.35;27.73;;;;;;;9.31;98.06;102954.75;5075458;28;20358;-83
2021/12/15 11:58:06;;;;;;;53.03;27.90;;;;;;;9.30;97.17;102949.47;5080518;28;20036;-85
2021/12/15 12:00:31;;;;;;;49.33;28.50;;;;;;;9.27;97.57;102949.50;5087240;28;20508;-83
2021/12/15 12:02:58;;;;;;;53.38;28.98;;;;;;;9.24;97.41;102939.78;5090433;28;20160;-83
2021/12/15 12:05:29;;;;;;;53.80;30.13;;;;;;;9.29;97.30;102943.28;5066673;28;20506;-83
2021/12/15 12:07:58;;;;;;;47.00;26.85;;;;;;;9.27;97.21;102950.38;5067763;28;20051;-83
2021/12/15 12:10:31;;;;;;;48.83;27.15;;;;;;;9.27;96.78;102949.50;5086124;28;20024;-83
2021/12/15 12:13:08;;;;;;;51.17;28.40;;;;;;;9.23;97.10;102948.63;5082981;28;20469;-83
2021/12/15 12:15:38;;;;;;;50.97;28.23;;;;;;;9.20;96.86;102946.03;5073313;28;20033;-83
2021/12/15 12:18:10;;;;;;;45.85;27.13;;;;;;;9.23;97.02;102943.31;5085664;28;20080;-84
2021/12/15 12:20:45;;;;;;;46.75;26.88;;;;;;;9.21;96.82;102940.69;5071168;28;20047;-83
2021/12/15 12:23:14;;;;;;;50.90;29.20;;;;;;;9.19;96.88;102945.13;5072160;28;20040;-83
2021/12/15 12:25:45;;;;;;;47.20;27.73;;;;;;;9.20;96.75;102935.41;5083635;28;20126;-83
2021/12/15 12:28:13;;;;;;;50.97;27.48;;;;;;;9.21;96.74;102939.81;5072810;28;20118;-83
2021/12/15 12:30:42;;;;;;;50.30;27.95;;;;;;;9.26;97.21;102932.66;5084744;28;20053;-83